createdAt,value
2018-12-14T00:00:39.845Z,7.60
2018-12-14T00:03:08.051Z,8.20
2018-12-14T00:05:36.311Z,7.23
2018-12-14T00:08:04.449Z,6.97
2018-12-14T00:10:32.686Z,6.77
2018-12-14T00:13:00.937Z,7.27
2018-12-14T00:15:29.196Z,7.73
2018-12-14T00:17:57.392Z,7.07
2018-12-14T00:20:25.601Z,7.57
2018-12-14T00:22:53.740Z,7.60
2018-12-14T00:25:22.261Z,6.60
2018-12-14T00:27:50.395Z,6.80
2018-12-14T00:30:18.538Z,7.13
2018-12-14T00:32:46.668Z,7.97
2018-12-14T00:35:14.985Z,6.70
2018-12-14T00:37:43.119Z,7.37
2018-12-14T00:40:11.248Z,6.23
2018-12-14T00:42:39.397Z,7.00
2018-12-14T00:45:07.635Z,6.13
2018-12-14T00:47:35.901Z,7.00
2018-12-14T00:50:04.514Z,6.13
2018-12-14T00:52:32.658Z,6.60
2018-12-14T00:55:00.780Z,6.17
2018-12-14T00:57:28.939Z,6.50
2018-12-14T00:59:57.056Z,6.50
2018-12-14T01:02:29.265Z,6.87
2018-12-14T01:04:57.825Z,6.47
2018-12-14T01:07:26.052Z,5.80
2018-12-14T01:09:54.269Z,7.00
2018-12-14T01:12:22.400Z,6.90
2018-12-14T01:14:50.637Z,6.67
2018-12-14T01:17:18.763Z,6.10
2018-12-14T01:19:46.964Z,6.20
2018-12-14T01:22:15.176Z,6.73
2018-12-14T01:24:43.318Z,6.50
2018-12-14T01:27:11.603Z,6.50
2018-12-14T01:29:39.804Z,6.20
2018-12-14T01:32:08.240Z,6.47
2018-12-14T01:34:36.546Z,6.30
2018-12-14T01:37:04.768Z,5.93
2018-12-14T01:39:32.979Z,5.30
2018-12-14T01:42:04.792Z,5.40
2018-12-14T01:44:31.236Z,6.47
2018-12-14T01:46:59.366Z,5.97
2018-12-14T01:49:27.592Z,5.93
2018-12-14T01:51:55.962Z,5.83
2018-12-14T01:54:24.185Z,6.20
2018-12-14T01:56:52.371Z,5.20
2018-12-14T01:59:20.582Z,5.60
2018-12-14T02:01:48.708Z,4.60
2018-12-14T02:04:16.928Z,6.13
2018-12-14T02:06:45.238Z,5.87
2018-12-14T02:09:13.374Z,6.27
2018-12-14T02:11:41.531Z,6.27
2018-12-14T02:14:09.687Z,5.63
2018-12-14T02:16:37.902Z,5.40
2018-12-14T02:19:06.041Z,5.40
2018-12-14T02:21:34.270Z,5.77
2018-12-14T02:24:02.424Z,6.07
2018-12-14T02:26:30.578Z,5.30
2018-12-14T02:28:58.720Z,6.00
2018-12-14T02:31:26.862Z,6.03
2018-12-14T02:33:55.032Z,5.40
2018-12-14T02:36:23.271Z,5.43
2018-12-14T02:38:51.389Z,5.63
2018-12-14T02:41:19.610Z,5.83
2018-12-14T02:43:47.810Z,6.70
2018-12-14T02:46:15.952Z,6.00
2018-12-14T02:48:44.084Z,5.43
2018-12-14T02:51:12.222Z,5.73
2018-12-14T02:53:40.345Z,4.90
2018-12-14T02:56:08.506Z,5.47
2018-12-14T02:58:36.722Z,6.57
2018-12-14T03:01:04.835Z,5.60
2018-12-14T03:03:32.981Z,6.53
2018-12-14T03:06:01.229Z,5.37
2018-12-14T03:08:29.455Z,6.30
2018-12-14T03:10:57.660Z,5.73
2018-12-14T03:13:25.817Z,5.70
2018-12-14T03:15:53.963Z,6.20
2018-12-14T03:18:22.110Z,5.90
2018-12-14T03:20:50.250Z,5.67
2018-12-14T03:23:18.383Z,5.03
2018-12-14T03:25:46.788Z,6.60
2018-12-14T03:28:15.035Z,6.23
2018-12-14T03:30:43.474Z,6.10
2018-12-14T03:33:11.832Z,6.60
2018-12-14T03:35:40.043Z,5.90
2018-12-14T03:38:08.335Z,5.60
2018-12-14T03:40:36.471Z,6.03
2018-12-14T03:43:04.773Z,5.87
2018-12-14T03:45:32.994Z,6.53
2018-12-14T03:48:01.124Z,7.13
2018-12-14T03:50:29.436Z,6.23
2018-12-14T03:52:57.570Z,6.53
2018-12-14T03:55:25.710Z,6.67
2018-12-14T03:57:54.425Z,7.43
2018-12-14T04:00:22.642Z,6.07
2018-12-14T04:02:51.447Z,7.93
2018-12-14T04:05:19.660Z,6.17
2018-12-14T04:07:47.797Z,6.97
2018-12-14T04:10:16.010Z,5.83
2018-12-14T04:12:44.219Z,5.83
2018-12-14T04:15:12.517Z,6.00
2018-12-14T04:17:40.737Z,7.20
2018-12-14T04:20:09.062Z,7.00
2018-12-14T04:22:37.350Z,7.07
2018-12-14T04:25:05.949Z,6.77
2018-12-14T04:27:34.080Z,6.17
2018-12-14T04:30:02.364Z,7.00
2018-12-14T04:32:30.522Z,7.00
2018-12-14T04:34:58.675Z,7.63
2018-12-14T04:37:26.885Z,7.07
2018-12-14T04:39:55.112Z,6.67
2018-12-14T04:42:23.814Z,6.67
2018-12-14T04:44:51.983Z,8.17
2018-12-14T04:47:20.338Z,7.57
2018-12-14T04:49:48.854Z,7.57
2018-12-14T04:52:17.084Z,7.40
2018-12-14T04:54:45.469Z,8.10
2018-12-14T04:57:14.720Z,8.03
2018-12-14T04:59:42.939Z,6.97
2018-12-14T05:02:11.261Z,9.23
2018-12-14T05:04:39.459Z,8.10
2018-12-14T05:07:07.620Z,8.00
2018-12-14T05:09:35.745Z,6.87
2018-12-14T05:12:04.261Z,7.67
2018-12-14T05:14:32.801Z,8.37
2018-12-14T05:17:01.056Z,8.67
2018-12-14T05:19:29.233Z,8.00
2018-12-14T05:21:57.860Z,8.53
2018-12-14T05:24:26.014Z,8.43
2018-12-14T05:26:55.357Z,8.30
2018-12-14T05:29:23.702Z,8.50
2018-12-14T05:31:51.880Z,8.50
2018-12-14T05:34:20.049Z,8.27
2018-12-14T05:36:48.264Z,8.07
2018-12-14T05:39:16.390Z,10.03
2018-12-14T05:41:44.623Z,9.23
2018-12-14T05:44:12.752Z,9.27
2018-12-14T05:46:40.890Z,9.47
2018-12-14T05:49:09.134Z,8.17
2018-12-14T05:51:38.169Z,8.93
2018-12-14T05:54:06.283Z,8.83
2018-12-14T05:56:34.819Z,9.63
2018-12-14T05:59:03.028Z,9.03
2018-12-14T06:01:31.190Z,8.60
2018-12-14T06:03:59.586Z,8.83
2018-12-14T06:06:27.791Z,8.53
2018-12-14T06:08:56.000Z,9.27
2018-12-14T06:11:25.677Z,8.87
2018-12-14T06:13:53.817Z,9.47
2018-12-14T06:16:21.957Z,9.53
2018-12-14T06:18:50.120Z,9.13
2018-12-14T06:21:18.268Z,9.03
2018-12-14T06:23:46.410Z,7.27
2018-12-14T06:26:14.564Z,9.43
2018-12-14T06:28:42.813Z,10.13
2018-12-14T06:31:11.023Z,10.53
2018-12-14T06:33:39.190Z,10.67
2018-12-14T06:36:07.377Z,10.10
2018-12-14T06:38:35.545Z,10.00
2018-12-14T06:41:03.826Z,9.83
2018-12-14T06:43:31.982Z,10.37
2018-12-14T06:46:00.107Z,11.27
2018-12-14T06:48:28.253Z,10.67
2018-12-14T06:50:56.866Z,10.57
2018-12-14T06:53:25.008Z,10.10
2018-12-14T06:55:53.137Z,11.10
2018-12-14T06:58:21.386Z,11.00
2018-12-14T07:00:49.596Z,10.93
2018-12-14T07:03:17.736Z,10.67
2018-12-14T07:05:45.898Z,11.07
2018-12-14T07:08:14.041Z,10.33
2018-12-14T07:10:42.172Z,10.30
2018-12-14T07:13:10.353Z,10.47
2018-12-14T07:15:38.492Z,10.17
2018-12-14T07:18:06.814Z,11.80
2018-12-14T07:20:35.072Z,10.30
2018-12-14T07:23:03.224Z,12.57
2018-12-14T07:25:31.355Z,10.57
2018-12-14T07:27:59.598Z,10.07
2018-12-14T07:30:27.863Z,10.07
2018-12-14T07:32:56.003Z,11.27
2018-12-14T07:35:24.255Z,10.90
2018-12-14T07:37:52.410Z,10.77
2018-12-14T07:40:20.562Z,11.07
2018-12-14T07:42:48.701Z,11.20
2018-12-14T07:45:16.924Z,11.53
2018-12-14T07:47:45.052Z,11.73
2018-12-14T07:50:13.304Z,11.20
2018-12-14T07:52:41.532Z,12.63
2018-12-14T07:55:09.800Z,12.10
2018-12-14T07:57:38.025Z,12.50
2018-12-14T08:00:08.083Z,13.57
2018-12-14T08:02:36.689Z,12.73
2018-12-14T08:05:05.899Z,11.63
2018-12-14T08:07:34.181Z,12.63
2018-12-14T08:10:02.558Z,12.67
2018-12-14T08:12:30.757Z,11.63
2018-12-14T08:14:58.917Z,13.80
2018-12-14T08:17:27.317Z,14.03
2018-12-14T08:19:55.593Z,11.13
2018-12-14T08:22:23.728Z,12.07
2018-12-14T08:24:51.888Z,12.03
2018-12-14T08:27:20.068Z,11.70
2018-12-14T08:29:48.344Z,12.33
2018-12-14T08:32:17.329Z,12.20
2018-12-14T08:34:50.930Z,11.13
2018-12-14T08:37:15.772Z,12.23
2018-12-14T08:39:43.962Z,10.60
2018-12-14T08:42:12.092Z,11.27
2018-12-14T08:44:40.320Z,11.67
2018-12-14T08:47:08.618Z,12.57
2018-12-14T08:49:36.781Z,12.77
2018-12-14T08:52:04.937Z,13.10
2018-12-14T08:54:33.201Z,12.77
2018-12-14T08:57:01.390Z,10.47
2018-12-14T08:59:29.536Z,12.13
2018-12-14T09:01:57.800Z,11.47
2018-12-14T09:04:26.000Z,11.37
2018-12-14T09:06:54.144Z,12.33
2018-12-14T09:09:22.318Z,13.23
2018-12-14T09:11:50.495Z,12.77
2018-12-14T09:14:18.624Z,10.63
2018-12-14T09:16:46.857Z,12.60
2018-12-14T09:19:15.076Z,13.37
2018-12-14T09:21:43.221Z,15.30
2018-12-14T09:24:11.378Z,13.63
2018-12-14T09:26:39.606Z,12.47
2018-12-14T09:29:08.176Z,14.10
2018-12-14T09:31:36.501Z,11.93
2018-12-14T09:34:04.721Z,12.77
2018-12-14T09:36:32.877Z,11.80
2018-12-14T09:39:01.017Z,11.77
2018-12-14T09:41:29.212Z,12.53
2018-12-14T09:43:57.358Z,12.07
2018-12-14T09:46:25.510Z,12.77
2018-12-14T09:48:53.657Z,10.90
2018-12-14T09:51:21.864Z,12.07
2018-12-14T09:53:50.163Z,11.80
2018-12-14T09:56:18.397Z,11.63
2018-12-14T09:58:46.559Z,12.10
2018-12-14T10:01:14.765Z,12.57
2018-12-14T10:03:43.318Z,11.20
2018-12-14T10:06:15.723Z,11.37
2018-12-14T10:08:41.629Z,12.77
2018-12-14T10:11:09.862Z,12.43
2018-12-14T10:13:38.119Z,11.63
2018-12-14T10:16:06.792Z,12.73
2018-12-14T10:18:34.915Z,12.93
2018-12-14T10:21:03.273Z,10.80
2018-12-14T10:23:31.418Z,12.73
2018-12-14T10:25:59.596Z,11.70
2018-12-14T10:28:27.806Z,9.63
2018-12-14T10:30:55.948Z,11.33
2018-12-14T10:33:24.094Z,10.80
2018-12-14T10:35:52.299Z,10.00
2018-12-14T10:38:20.461Z,11.50
2018-12-14T10:40:48.586Z,11.53
2018-12-14T10:43:16.737Z,11.57
2018-12-14T10:45:45.279Z,11.00
2018-12-14T10:48:13.437Z,11.13
2018-12-14T10:50:41.658Z,11.30
2018-12-14T10:53:12.093Z,10.90
2018-12-14T10:55:40.790Z,10.07
2018-12-14T10:58:09.108Z,10.70
2018-12-14T11:01:42.776Z,10.97
2018-12-14T11:04:10.933Z,10.80
2018-12-14T11:06:39.708Z,12.03
2018-12-14T11:09:08.076Z,11.20
2018-12-14T11:11:36.227Z,9.73
2018-12-14T11:14:04.481Z,11.93
2018-12-14T11:16:32.700Z,10.43
2018-12-14T11:19:01.003Z,10.93
2018-12-14T11:21:29.163Z,11.07
2018-12-14T11:23:57.394Z,11.33
2018-12-14T11:26:25.687Z,11.20
2018-12-14T11:28:53.874Z,10.07
2018-12-14T11:31:22.017Z,10.07
2018-12-14T11:33:50.177Z,10.63
2018-12-14T11:36:18.382Z,10.47
2018-12-14T11:38:46.536Z,10.40
2018-12-14T11:41:18.480Z,11.77
2018-12-14T11:43:44.913Z,9.83
2018-12-14T11:46:13.070Z,10.50
2018-12-14T11:48:41.270Z,10.43
2018-12-14T11:51:10.960Z,10.50
2018-12-14T11:53:39.135Z,10.50
2018-12-14T11:56:07.268Z,10.50
2018-12-14T11:58:35.412Z,11.63
2018-12-14T12:01:03.700Z,10.63
2018-12-14T12:03:31.880Z,10.10
2018-12-14T12:06:00.030Z,10.30
2018-12-14T12:08:28.248Z,10.47
2018-12-14T12:10:56.410Z,11.37
2018-12-14T12:13:24.582Z,10.63
2018-12-14T12:15:52.721Z,10.77
2018-12-14T12:18:20.933Z,10.83
2018-12-14T12:20:49.080Z,10.90
2018-12-14T12:23:17.247Z,9.87
2018-12-14T12:25:45.397Z,10.27
2018-12-14T12:28:13.549Z,11.20
2018-12-14T12:30:41.685Z,10.10
2018-12-14T12:33:09.853Z,11.27
2018-12-14T12:35:38.004Z,10.23
2018-12-14T12:38:06.229Z,10.47
2018-12-14T12:40:34.372Z,12.20
2018-12-14T12:43:02.509Z,10.77
2018-12-14T12:45:30.746Z,9.63
2018-12-14T12:47:58.888Z,11.17
2018-12-14T12:50:27.126Z,12.03
2018-12-14T12:52:55.258Z,11.67
2018-12-14T12:55:23.402Z,11.43
2018-12-14T12:57:51.555Z,11.00
2018-12-14T13:00:19.710Z,10.67
2018-12-14T13:02:48.014Z,10.67
2018-12-14T13:05:16.316Z,11.33
2018-12-14T13:07:44.616Z,10.90
2018-12-14T13:10:12.790Z,9.80
2018-12-14T13:12:41.236Z,10.00
2018-12-14T13:15:09.520Z,11.03
2018-12-14T13:17:37.691Z,11.60
2018-12-14T13:20:06.106Z,12.23
2018-12-14T13:22:34.235Z,12.63
2018-12-14T13:25:02.529Z,10.50
2018-12-14T13:27:30.673Z,9.03
2018-12-14T13:29:58.844Z,9.60
2018-12-14T13:32:27.119Z,11.40
2018-12-14T13:34:55.266Z,11.40
2018-12-14T13:37:23.391Z,10.93
2018-12-14T13:39:51.639Z,9.40
2018-12-14T13:42:19.758Z,9.83
2018-12-14T13:44:47.982Z,9.67
2018-12-14T13:47:16.196Z,9.83
2018-12-14T13:49:44.426Z,10.00
2018-12-14T13:52:12.605Z,10.70
2018-12-14T13:54:40.891Z,9.43
2018-12-14T13:57:09.106Z,8.63
2018-12-14T13:59:37.330Z,9.53
2018-12-14T14:02:05.533Z,10.10
2018-12-14T14:04:35.879Z,10.07
2018-12-14T14:07:03.904Z,10.70
2018-12-14T14:09:32.234Z,10.20
2018-12-14T14:12:00.422Z,10.67
2018-12-14T14:14:28.649Z,11.70
2018-12-14T14:16:56.917Z,10.50
2018-12-14T14:19:25.786Z,10.47
2018-12-14T14:21:53.977Z,11.87
2018-12-14T14:24:22.169Z,11.53
2018-12-14T14:26:50.379Z,11.53
2018-12-14T14:29:18.546Z,11.77
2018-12-14T14:31:46.748Z,12.00
2018-12-14T14:34:14.954Z,11.53
2018-12-14T14:36:43.179Z,10.23
2018-12-14T14:39:11.400Z,10.10
2018-12-14T14:41:39.558Z,11.83
2018-12-14T14:44:07.691Z,11.37
2018-12-14T14:46:35.876Z,10.67
2018-12-14T14:49:04.154Z,10.70
2018-12-14T14:51:32.582Z,10.73
2018-12-14T14:54:00.723Z,11.97
2018-12-14T14:56:28.870Z,11.17
2018-12-14T14:58:57.014Z,10.50
2018-12-14T15:01:25.152Z,10.27
2018-12-14T15:03:53.324Z,12.97
2018-12-14T15:06:21.481Z,10.93
2018-12-14T15:08:50.196Z,8.63
2018-12-14T15:11:18.348Z,9.97
2018-12-14T15:13:46.606Z,10.77
2018-12-14T15:16:14.759Z,9.60
2018-12-14T15:18:42.930Z,10.23
2018-12-14T15:21:11.044Z,9.70
2018-12-14T15:23:39.202Z,11.27
2018-12-14T15:26:07.431Z,10.40
2018-12-14T15:28:35.736Z,10.70
2018-12-14T15:31:04.045Z,10.10
2018-12-14T15:33:32.232Z,11.30
2018-12-14T15:36:00.386Z,10.20
2018-12-14T15:38:28.521Z,8.20
2018-12-14T15:40:56.674Z,11.50
2018-12-14T15:43:24.867Z,12.77
2018-12-14T15:45:59.709Z,10.43
2018-12-14T15:48:27.849Z,11.90
2018-12-14T15:50:55.998Z,11.37
2018-12-14T15:53:24.204Z,10.23
2018-12-14T15:55:52.378Z,10.60
2018-12-14T15:58:20.516Z,9.50
2018-12-14T16:00:48.746Z,10.77
2018-12-14T16:03:16.953Z,10.30
2018-12-14T16:05:45.093Z,8.80
2018-12-14T16:08:13.291Z,9.50
2018-12-14T16:10:41.445Z,15.00
2018-12-14T16:13:09.591Z,22.53
2018-12-14T16:15:37.810Z,22.20
2018-12-14T16:18:05.967Z,12.33
2018-12-14T16:20:34.209Z,13.17
2018-12-14T16:23:02.400Z,10.27
2018-12-14T16:25:30.656Z,9.80
2018-12-14T16:27:58.796Z,8.47
2018-12-14T16:30:27.008Z,7.43
2018-12-14T16:32:55.230Z,9.90
2018-12-14T16:35:23.366Z,9.33
2018-12-14T16:37:51.529Z,11.10
2018-12-14T16:40:19.742Z,9.80
2018-12-14T16:42:47.893Z,10.67
2018-12-14T16:45:16.852Z,10.37
2018-12-14T16:47:45.002Z,10.67
2018-12-14T16:50:13.134Z,12.03
2018-12-14T16:52:41.285Z,10.67
2018-12-14T16:55:09.493Z,11.37
2018-12-14T16:57:37.701Z,8.90
2018-12-14T17:00:07.181Z,8.43
2018-12-14T17:02:35.436Z,9.50
2018-12-14T17:05:03.730Z,9.03
2018-12-14T17:07:32.056Z,8.67
2018-12-14T17:10:00.305Z,10.13
2018-12-14T17:12:28.513Z,9.30
2018-12-14T17:14:56.729Z,9.13
2018-12-14T17:17:24.882Z,8.47
2018-12-14T17:19:53.009Z,7.87
2018-12-14T17:22:21.172Z,8.63
2018-12-14T17:24:49.301Z,7.40
2018-12-14T17:27:17.518Z,8.27
2018-12-14T17:29:45.737Z,8.97
2018-12-14T17:32:13.917Z,7.87
2018-12-14T17:34:42.053Z,8.63
2018-12-14T17:37:10.252Z,9.17
2018-12-14T17:39:38.482Z,7.80
2018-12-14T17:42:06.823Z,8.97
2018-12-14T17:44:35.053Z,9.20
2018-12-14T17:47:03.454Z,7.87
2018-12-14T17:49:31.664Z,9.13
2018-12-14T17:51:59.895Z,11.03
2018-12-14T17:54:28.123Z,10.37
2018-12-14T17:56:56.275Z,9.50
2018-12-14T17:59:24.408Z,9.27
2018-12-14T18:01:52.856Z,8.50
2018-12-14T18:04:21.036Z,8.67
2018-12-14T18:06:49.262Z,9.07
2018-12-14T18:09:17.610Z,6.50
2018-12-14T18:11:45.781Z,9.20
2018-12-14T18:14:14.040Z,9.40
2018-12-14T18:16:42.463Z,8.90
2018-12-14T18:19:11.360Z,8.23
2018-12-14T18:21:39.517Z,8.43
2018-12-14T18:24:07.739Z,9.63
2018-12-14T18:26:35.910Z,9.63
2018-12-14T18:29:04.205Z,9.57
2018-12-14T18:31:32.312Z,8.87
2018-12-14T18:34:00.539Z,8.97
2018-12-14T18:36:28.722Z,8.73
2018-12-14T18:38:56.886Z,7.37
2018-12-14T18:41:25.321Z,7.17
2018-12-14T18:43:53.497Z,8.30
2018-12-14T18:46:21.698Z,7.60
2018-12-14T18:48:49.921Z,7.93
2018-12-14T18:51:18.119Z,7.23
2018-12-14T18:53:55.938Z,7.73
2018-12-14T18:56:24.398Z,7.93
2018-12-14T18:58:52.767Z,7.30
2018-12-14T19:01:21.167Z,7.87
2018-12-14T19:03:49.752Z,9.30
2018-12-14T19:06:18.140Z,6.80
2018-12-14T19:08:46.428Z,7.07
2018-12-14T19:11:14.552Z,7.90
2018-12-14T19:13:42.723Z,8.43
2018-12-14T19:16:10.978Z,7.20
2018-12-14T19:18:39.137Z,6.37
2018-12-14T19:21:07.747Z,9.77
2018-12-14T19:23:35.968Z,7.50
2018-12-14T19:26:04.265Z,6.70
2018-12-14T19:28:32.579Z,7.63
2018-12-14T19:31:00.982Z,8.30
2018-12-14T19:33:29.295Z,7.90
2018-12-14T19:35:57.619Z,8.43
2018-12-14T19:38:25.836Z,8.83
2018-12-14T19:40:54.143Z,7.70
2018-12-14T19:43:22.301Z,8.10
2018-12-14T19:45:50.420Z,8.27
2018-12-14T19:48:18.570Z,7.80
2018-12-14T19:50:46.695Z,6.67
2018-12-14T19:53:14.916Z,7.40
2018-12-14T19:55:43.078Z,8.20
2018-12-14T19:58:11.300Z,8.40
2018-12-14T20:00:39.532Z,8.23
2018-12-14T20:03:07.674Z,8.60
2018-12-14T20:05:35.901Z,7.37
2018-12-14T20:08:04.131Z,6.80
2018-12-14T20:10:32.261Z,7.67
2018-12-14T20:13:00.610Z,9.13
2018-12-14T20:15:28.753Z,7.83
2018-12-14T20:17:56.885Z,7.07
2018-12-14T20:20:25.170Z,8.07
2018-12-14T20:22:53.390Z,8.23
2018-12-14T20:25:21.566Z,7.63
2018-12-14T20:27:49.754Z,7.73
2018-12-14T20:30:17.892Z,8.03
2018-12-14T20:32:46.057Z,7.87
2018-12-14T20:35:14.297Z,9.00
2018-12-14T20:37:42.613Z,8.30
2018-12-14T20:40:10.870Z,7.90
2018-12-14T20:42:39.015Z,7.20
2018-12-14T20:45:07.947Z,7.63
2018-12-14T20:47:36.100Z,9.13
2018-12-14T20:50:05.144Z,8.23
2018-12-14T20:52:33.301Z,9.27
2018-12-14T20:55:01.577Z,7.67
2018-12-14T20:57:29.733Z,10.60
2018-12-14T20:59:57.964Z,11.80
2018-12-14T21:02:26.121Z,6.50
2018-12-14T21:04:54.353Z,8.50
2018-12-14T21:07:22.614Z,6.53
2018-12-14T21:09:50.752Z,6.53
2018-12-14T21:12:18.892Z,7.47
2018-12-14T21:14:50.893Z,7.83
2018-12-14T21:17:17.218Z,7.87
2018-12-14T21:19:49.282Z,8.53
2018-12-14T21:22:17.431Z,7.60
2018-12-14T21:24:45.559Z,7.37
2018-12-14T21:27:13.733Z,7.63
2018-12-14T21:29:41.879Z,7.40
2018-12-14T21:32:10.116Z,8.10
2018-12-14T21:34:38.268Z,9.17
2018-12-14T21:37:06.492Z,9.83
2018-12-14T21:39:34.739Z,8.20
2018-12-14T21:42:09.699Z,8.40
2018-12-14T21:44:37.885Z,7.93
2018-12-14T21:47:06.126Z,7.67
2018-12-14T21:49:34.284Z,8.43
2018-12-14T21:52:02.423Z,8.63
2018-12-14T21:54:30.566Z,7.97
2018-12-14T21:56:58.718Z,7.80
2018-12-14T21:59:26.862Z,8.00
2018-12-14T22:01:55.157Z,7.50
2018-12-14T22:04:23.299Z,8.10
2018-12-14T22:06:51.508Z,8.23
2018-12-14T22:09:19.738Z,9.33
2018-12-14T22:11:47.902Z,7.07
2018-12-14T22:14:16.045Z,8.40
2018-12-14T22:16:44.193Z,8.80
2018-12-14T22:19:12.400Z,8.03
2018-12-14T22:21:40.624Z,7.87
2018-12-14T22:24:08.883Z,8.23
2018-12-14T22:26:37.070Z,8.13
2018-12-14T22:29:05.325Z,7.77
2018-12-14T22:31:33.480Z,8.40
2018-12-14T22:34:01.664Z,7.40
2018-12-14T22:36:29.902Z,7.10
2018-12-14T22:38:58.068Z,7.83
2018-12-14T22:41:26.400Z,8.23
2018-12-14T22:43:54.555Z,8.67
2018-12-14T22:46:22.729Z,7.80
2018-12-14T22:48:50.889Z,7.30
2018-12-14T22:51:19.035Z,7.60
2018-12-14T22:53:47.864Z,8.13
2018-12-14T22:56:16.165Z,7.73
2018-12-14T22:58:44.296Z,7.67
2018-12-14T23:01:12.620Z,8.97
2018-12-14T23:03:40.798Z,8.10
2018-12-14T23:06:08.945Z,8.50
2018-12-14T23:08:37.100Z,9.10
2018-12-14T23:11:05.375Z,8.10
2018-12-14T23:13:33.632Z,8.03
2018-12-14T23:16:01.799Z,8.67
2018-12-14T23:18:30.031Z,8.20
2018-12-14T23:20:58.197Z,8.60
2018-12-14T23:23:26.394Z,8.20
2018-12-14T23:25:54.581Z,7.27
2018-12-14T23:28:22.845Z,9.67
2018-12-14T23:30:51.090Z,8.03
2018-12-14T23:33:19.340Z,8.60
2018-12-14T23:35:47.524Z,8.53
2018-12-14T23:38:15.676Z,8.20
2018-12-14T23:40:43.880Z,8.03
2018-12-14T23:43:12.018Z,8.13
2018-12-14T23:45:40.312Z,7.80
2018-12-14T23:48:08.506Z,7.77
2018-12-14T23:50:36.701Z,8.63
2018-12-14T23:53:04.837Z,7.83
2018-12-14T23:55:33.020Z,8.37
2018-12-14T23:58:01.192Z,8.17
